createdAt,value
2022-12-23T00:00:48.185Z,38.70
2022-12-23T00:03:07.692Z,38.83
2022-12-23T00:05:21.133Z,38.96
2022-12-23T00:07:34.466Z,39.09
2022-12-23T00:09:48.586Z,39.25
2022-12-23T00:12:19.037Z,39.41
2022-12-23T00:14:50.771Z,39.48
2022-12-23T00:17:12.954Z,39.37
2022-12-23T00:19:36.557Z,39.65
2022-12-23T00:21:49.917Z,39.49
2022-12-23T00:24:04.170Z,39.60
2022-12-23T00:26:20.280Z,39.53
2022-12-23T00:28:35.505Z,39.63
2022-12-23T00:30:54.751Z,39.90
2022-12-23T00:33:08.538Z,39.91
2022-12-23T00:35:22.174Z,40.17
2022-12-23T00:37:38.543Z,40.03
2022-12-23T00:40:09.745Z,40.36
2022-12-23T00:42:39.981Z,40.15
2022-12-23T00:44:54.079Z,40.39
2022-12-23T00:47:30.664Z,40.44
2022-12-23T00:49:46.785Z,40.33
2022-12-23T00:52:00.185Z,40.60
2022-12-23T00:54:14.562Z,40.25
2022-12-23T00:56:28.178Z,40.20
2022-12-23T00:58:41.737Z,40.42
2022-12-23T01:01:28.314Z,40.66
2022-12-23T01:04:00.695Z,40.34
2022-12-23T01:06:14.150Z,40.24
2022-12-23T01:08:27.716Z,40.57
2022-12-23T01:10:43.513Z,40.67
2022-12-23T01:12:56.912Z,40.62
2022-12-23T01:15:11.413Z,40.69
2022-12-23T01:17:24.697Z,40.82
2022-12-23T01:19:39.490Z,40.67
2022-12-23T01:21:52.900Z,40.70
2022-12-23T01:24:08.071Z,40.89
2022-12-23T01:26:23.170Z,41.03
2022-12-23T01:28:38.001Z,41.08
2022-12-23T01:30:51.401Z,41.02
2022-12-23T01:33:05.874Z,40.86
2022-12-23T01:35:19.513Z,40.92
2022-12-23T01:37:32.836Z,41.08
2022-12-23T01:39:46.089Z,41.19
2022-12-23T01:42:19.090Z,41.47
2022-12-23T01:44:58.978Z,41.51
2022-12-23T01:47:16.451Z,41.58
2022-12-23T01:49:31.615Z,41.60
2022-12-23T01:51:45.276Z,41.56
2022-12-23T01:54:02.158Z,41.50
2022-12-23T01:56:21.036Z,41.68
2022-12-23T01:58:38.854Z,41.93
2022-12-23T02:01:08.616Z,41.94
2022-12-23T02:03:39.046Z,41.84
2022-12-23T02:06:16.678Z,42.10
2022-12-23T02:08:49.294Z,42.33
2022-12-23T02:11:28.110Z,42.51
2022-12-23T02:14:09.512Z,43.15
2022-12-23T02:16:25.155Z,43.43
2022-12-23T02:18:58.107Z,43.67
2022-12-23T02:21:34.124Z,43.66
2022-12-23T02:24:19.667Z,43.79
2022-12-23T02:26:59.324Z,44.14
2022-12-23T02:29:39.751Z,44.10
2022-12-23T02:32:01.319Z,44.37
2022-12-23T02:34:17.177Z,44.44
2022-12-23T02:36:41.982Z,44.74
2022-12-23T02:39:05.494Z,44.71
2022-12-23T02:41:25.373Z,45.14
2022-12-23T02:43:45.376Z,45.78
2022-12-23T02:46:03.928Z,45.69
2022-12-23T02:48:22.066Z,46.35
2022-12-23T02:50:38.353Z,46.33
2022-12-23T02:52:55.184Z,46.39
2022-12-23T02:55:13.442Z,46.73
2022-12-23T02:57:32.603Z,47.04
2022-12-23T02:59:49.862Z,47.44
2022-12-23T03:02:05.173Z,47.94
2022-12-23T03:04:19.935Z,48.18
2022-12-23T03:06:36.333Z,48.30
2022-12-23T03:08:50.747Z,48.51
2022-12-23T03:11:10.933Z,48.92
2022-12-23T03:13:33.733Z,49.07
2022-12-23T03:15:55.401Z,49.38
2022-12-23T03:18:15.212Z,49.76
2022-12-23T03:20:33.969Z,50.27
2022-12-23T03:22:55.186Z,50.51
2022-12-23T03:25:15.408Z,50.49
2022-12-23T03:27:34.204Z,50.73
2022-12-23T03:29:54.780Z,50.85
2022-12-23T03:32:10.607Z,51.16
2022-12-23T03:34:29.510Z,51.42
2022-12-23T03:36:46.257Z,51.81
2022-12-23T03:39:01.246Z,51.97
2022-12-23T03:41:20.053Z,52.12
2022-12-23T03:43:37.260Z,52.40
2022-12-23T03:45:55.903Z,52.60
2022-12-23T03:48:15.121Z,52.79
2022-12-23T03:50:30.502Z,53.18
2022-12-23T03:52:51.048Z,53.45
2022-12-23T03:55:08.030Z,53.69
2022-12-23T03:57:23.491Z,54.18
2022-12-23T03:59:39.707Z,54.34
2022-12-23T04:02:03.635Z,54.21
2022-12-23T04:04:24.207Z,54.55
2022-12-23T04:06:45.238Z,55.05
2022-12-23T04:09:00.631Z,55.13
2022-12-23T04:11:15.164Z,55.58
2022-12-23T04:13:29.843Z,56.28
2022-12-23T04:15:45.061Z,57.24
2022-12-23T04:18:00.373Z,57.27
2022-12-23T04:20:15.634Z,56.86
2022-12-23T04:22:28.865Z,57.29
2022-12-23T04:24:42.222Z,57.12
2022-12-23T04:26:57.653Z,57.67
2022-12-23T04:29:10.819Z,57.36
2022-12-23T04:31:25.504Z,56.98
2022-12-23T04:33:40.309Z,56.44
2022-12-23T04:35:52.970Z,56.89
2022-12-23T04:38:06.276Z,56.75
2022-12-23T04:40:19.589Z,56.94
2022-12-23T04:42:34.179Z,56.80
2022-12-23T04:44:47.989Z,56.68
2022-12-23T04:47:01.873Z,56.62
2022-12-23T04:49:15.103Z,56.42
2022-12-23T04:51:28.992Z,56.92
2022-12-23T04:53:44.738Z,57.28
2022-12-23T04:55:58.344Z,57.15
2022-12-23T04:58:11.913Z,57.34
2022-12-23T05:00:26.216Z,58.57
2022-12-23T05:02:40.511Z,59.13
2022-12-23T05:04:54.482Z,58.80
2022-12-23T05:07:10.168Z,58.91
2022-12-23T05:09:24.921Z,58.89
2022-12-23T05:11:42.406Z,58.90
2022-12-23T05:13:55.526Z,58.80
2022-12-23T05:16:10.576Z,59.05
2022-12-23T05:18:24.641Z,59.29
2022-12-23T05:20:38.541Z,59.26
2022-12-23T05:22:51.796Z,59.29
2022-12-23T05:25:04.731Z,59.48
2022-12-23T05:27:19.262Z,59.38
2022-12-23T05:29:33.856Z,59.64
2022-12-23T05:31:47.123Z,59.24
2022-12-23T05:34:06.040Z,59.31
2022-12-23T05:36:20.675Z,59.14
2022-12-23T05:38:35.039Z,59.04
2022-12-23T05:40:48.460Z,59.10
2022-12-23T05:43:03.043Z,58.78
2022-12-23T05:45:16.572Z,58.97
2022-12-23T05:47:30.068Z,58.99
2022-12-23T05:49:43.344Z,58.62
2022-12-23T05:51:57.167Z,59.12
2022-12-23T05:54:10.499Z,59.11
2022-12-23T05:56:25.418Z,59.23
2022-12-23T05:58:38.812Z,59.65
2022-12-23T06:00:53.304Z,59.31
2022-12-23T06:03:07.807Z,58.91
2022-12-23T06:05:21.200Z,58.81
2022-12-23T06:07:35.574Z,58.73
2022-12-23T06:09:48.882Z,58.71
2022-12-23T06:12:04.224Z,58.72
2022-12-23T06:14:17.650Z,58.44
2022-12-23T06:16:30.943Z,58.43
2022-12-23T06:18:43.729Z,58.63
2022-12-23T06:20:57.535Z,58.26
2022-12-23T06:23:11.483Z,58.31
2022-12-23T06:25:24.736Z,58.07
2022-12-23T06:27:38.838Z,58.09
2022-12-23T06:29:53.833Z,57.93
2022-12-23T06:32:07.091Z,57.95
2022-12-23T06:34:20.889Z,58.46
2022-12-23T06:36:35.340Z,58.52
2022-12-23T06:38:48.212Z,58.60
2022-12-23T06:41:02.013Z,58.57
2022-12-23T06:43:15.774Z,58.46
2022-12-23T06:45:29.808Z,58.65
2022-12-23T06:47:44.056Z,58.70
2022-12-23T06:49:58.329Z,58.62
2022-12-23T06:52:11.328Z,58.52
2022-12-23T06:54:23.817Z,58.68
2022-12-23T06:56:36.932Z,58.57
2022-12-23T06:58:50.765Z,58.46
2022-12-23T07:01:04.330Z,58.61
2022-12-23T07:03:18.434Z,58.49
2022-12-23T07:05:36.936Z,58.52
2022-12-23T07:07:51.104Z,58.29
2022-12-23T07:10:05.366Z,58.39
2022-12-23T07:12:18.423Z,58.41
2022-12-23T07:14:32.963Z,58.61
2022-12-23T07:16:47.507Z,58.63
2022-12-23T07:19:00.685Z,58.60
2022-12-23T07:21:22.905Z,58.58
2022-12-23T07:23:40.532Z,58.64
2022-12-23T07:25:56.992Z,59.02
2022-12-23T07:28:10.386Z,59.19
2022-12-23T07:30:23.809Z,59.68
2022-12-23T07:32:36.947Z,59.94
2022-12-23T07:34:49.844Z,59.67
2022-12-23T07:37:03.229Z,60.06
2022-12-23T07:39:16.249Z,60.24
2022-12-23T07:41:30.557Z,60.95
2022-12-23T07:43:47.091Z,62.29
2022-12-23T07:46:01.194Z,62.63
2022-12-23T07:48:14.626Z,62.61
2022-12-23T07:50:29.046Z,62.83
2022-12-23T07:52:42.687Z,63.23
2022-12-23T07:54:55.873Z,63.61
2022-12-23T07:57:10.215Z,63.69
2022-12-23T07:59:24.763Z,63.83
2022-12-23T08:01:38.670Z,63.99
2022-12-23T08:03:52.448Z,64.26
2022-12-23T08:06:10.789Z,64.42
2022-12-23T08:08:23.742Z,64.39
2022-12-23T08:10:40.285Z,64.51
2022-12-23T08:12:57.701Z,63.89
2022-12-23T08:15:12.647Z,64.32
2022-12-23T08:17:29.104Z,63.94
2022-12-23T08:19:42.103Z,64.12
2022-12-23T08:21:55.331Z,64.39
2022-12-23T08:24:09.046Z,63.93
2022-12-23T08:26:23.935Z,63.77
2022-12-23T08:28:38.273Z,63.76
2022-12-23T08:30:52.159Z,64.18
2022-12-23T08:33:05.255Z,64.21
2022-12-23T08:35:18.455Z,63.72
2022-12-23T08:37:32.894Z,64.02
2022-12-23T08:39:46.883Z,64.28
2022-12-23T08:42:00.299Z,64.02
2022-12-23T08:44:14.724Z,64.52
2022-12-23T08:46:29.568Z,64.52
2022-12-23T08:48:48.907Z,65.01
2022-12-23T08:51:05.551Z,65.29
2022-12-23T08:53:19.692Z,65.37
2022-12-23T08:55:34.027Z,65.85
2022-12-23T08:57:47.722Z,65.78
2022-12-23T09:00:01.834Z,65.82
2022-12-23T09:02:15.901Z,65.71
2022-12-23T09:04:29.827Z,66.02
2022-12-23T09:06:44.116Z,65.72
2022-12-23T09:08:58.090Z,65.86
2022-12-23T09:11:14.954Z,66.06
2022-12-23T09:13:34.810Z,66.06
2022-12-23T09:15:50.197Z,66.16
2022-12-23T09:18:03.486Z,66.67
2022-12-23T09:20:18.069Z,66.96
2022-12-23T09:22:31.993Z,66.93
2022-12-23T09:24:45.111Z,67.08
2022-12-23T09:26:58.904Z,67.07
2022-12-23T09:29:13.532Z,67.09
2022-12-23T09:31:32.653Z,67.23
2022-12-23T09:33:53.133Z,67.53
2022-12-23T09:36:08.918Z,67.59
2022-12-23T09:38:22.525Z,67.56
2022-12-23T09:40:37.543Z,67.59
2022-12-23T09:43:07.783Z,68.11
2022-12-23T09:45:40.784Z,67.97
2022-12-23T09:47:58.431Z,68.23
2022-12-23T09:50:22.817Z,68.44
2022-12-23T09:52:49.787Z,68.85
2022-12-23T09:55:03.844Z,68.80
2022-12-23T09:57:25.242Z,69.07
2022-12-23T09:59:54.478Z,69.26
2022-12-23T10:02:19.676Z,69.39
2022-12-23T10:04:46.066Z,69.40
2022-12-23T10:07:12.979Z,69.66
2022-12-23T10:09:26.469Z,70.08
2022-12-23T10:11:44.745Z,70.00
2022-12-23T10:14:03.801Z,70.09
2022-12-23T10:16:22.951Z,71.44
2022-12-23T10:18:45.683Z,71.71
2022-12-23T10:21:04.722Z,71.59
2022-12-23T10:23:27.189Z,71.49
2022-12-23T10:25:40.637Z,71.34
2022-12-23T10:27:54.578Z,71.07
2022-12-23T10:30:34.312Z,71.33
2022-12-23T10:33:01.987Z,70.76
2022-12-23T10:35:25.930Z,70.78
2022-12-23T10:37:45.187Z,70.63
2022-12-23T10:40:06.948Z,70.73
2022-12-23T10:42:29.050Z,70.72
2022-12-23T10:44:49.465Z,70.44
2022-12-23T10:47:11.686Z,70.70
2022-12-23T10:49:24.685Z,71.38
2022-12-23T10:51:49.653Z,71.16
2022-12-23T10:54:09.248Z,70.94
2022-12-23T10:56:24.250Z,71.36
2022-12-23T10:58:38.809Z,71.11
2022-12-23T11:00:56.663Z,70.88
2022-12-23T11:03:18.598Z,71.08
2022-12-23T11:05:33.782Z,71.39
2022-12-23T11:07:49.245Z,71.56
2022-12-23T11:10:05.827Z,71.61
2022-12-23T11:12:25.380Z,71.56
2022-12-23T11:14:42.702Z,71.47
2022-12-23T11:16:56.826Z,71.08
2022-12-23T11:19:18.254Z,71.14
2022-12-23T11:21:32.392Z,70.94
2022-12-23T11:23:45.576Z,71.01
2022-12-23T11:26:07.066Z,70.75
2022-12-23T11:28:23.348Z,70.61
2022-12-23T11:30:39.579Z,70.53
2022-12-23T11:32:54.169Z,70.44
2022-12-23T11:35:08.042Z,70.03
2022-12-23T11:37:38.618Z,69.93
2022-12-23T11:39:52.673Z,69.91
2022-12-23T11:42:15.764Z,69.77
2022-12-23T11:44:31.963Z,69.78
2022-12-23T11:46:45.976Z,69.71
2022-12-23T11:49:10.841Z,69.55
2022-12-23T11:51:31.064Z,70.10
2022-12-23T11:53:48.387Z,69.94
2022-12-23T11:56:07.966Z,69.91
2022-12-23T11:58:26.013Z,70.31
2022-12-23T12:00:43.756Z,70.33
2022-12-23T12:02:58.640Z,70.22
2022-12-23T12:05:23.026Z,70.48
2022-12-23T12:07:38.321Z,69.98
2022-12-23T12:09:52.501Z,70.21
2022-12-23T12:12:10.892Z,70.58
2022-12-23T12:14:33.172Z,70.38
2022-12-23T12:17:01.050Z,70.92
2022-12-23T12:19:23.850Z,71.19
2022-12-23T12:21:41.121Z,70.93
2022-12-23T12:24:17.022Z,71.24
2022-12-23T12:26:34.380Z,70.95
2022-12-23T12:28:51.329Z,70.97
2022-12-23T12:31:09.115Z,71.06
2022-12-23T12:33:26.660Z,71.26
2022-12-23T12:35:45.517Z,71.22
2022-12-23T12:38:05.820Z,71.12
2022-12-23T12:40:36.142Z,71.24
2022-12-23T12:42:55.243Z,71.36
2022-12-23T12:45:21.614Z,71.75
2022-12-23T12:48:04.438Z,71.57
2022-12-23T12:50:19.820Z,71.47
2022-12-23T12:52:36.623Z,71.11
2022-12-23T12:54:53.738Z,71.00
2022-12-23T12:57:07.683Z,70.89
2022-12-23T12:59:25.698Z,71.10
2022-12-23T13:01:54.830Z,71.00
2022-12-23T13:04:39.603Z,70.92
2022-12-23T13:07:03.919Z,71.16
2022-12-23T13:09:31.204Z,71.29
2022-12-23T13:11:51.836Z,71.54
2022-12-23T13:14:17.048Z,71.21
2022-12-23T13:16:41.608Z,71.31
2022-12-23T13:19:02.093Z,71.55
2022-12-23T13:21:21.308Z,71.36
2022-12-23T13:23:44.449Z,71.68
2022-12-23T13:26:03.076Z,71.79
2022-12-23T13:28:30.539Z,71.53
2022-12-23T13:30:49.792Z,71.59
2022-12-23T13:33:21.563Z,72.00
2022-12-23T13:35:50.362Z,71.74
2022-12-23T13:38:11.876Z,71.71
2022-12-23T13:40:38.920Z,71.66
2022-12-23T13:42:57.974Z,71.28
2022-12-23T13:45:17.461Z,71.22
2022-12-23T13:47:39.159Z,71.35
2022-12-23T13:50:03.217Z,71.87
2022-12-23T13:52:20.937Z,71.70
2022-12-23T13:54:49.543Z,71.56
2022-12-23T13:57:09.603Z,71.53
2022-12-23T13:59:24.003Z,71.88
2022-12-23T14:01:53.642Z,72.36
2022-12-23T14:04:37.647Z,72.36
2022-12-23T14:06:51.855Z,72.62
2022-12-23T14:09:06.573Z,72.63
2022-12-23T14:11:22.727Z,72.85
2022-12-23T14:13:43.817Z,72.86
2022-12-23T14:16:06.866Z,73.27
2022-12-23T14:18:34.164Z,73.06
2022-12-23T14:20:54.385Z,72.64
2022-12-23T14:23:23.546Z,72.73
2022-12-23T14:26:02.456Z,72.80
2022-12-23T14:28:29.208Z,72.58
2022-12-23T14:30:46.785Z,72.83
2022-12-23T14:33:05.011Z,72.54
2022-12-23T14:35:32.454Z,72.79
2022-12-23T14:38:07.936Z,72.83
2022-12-23T14:41:03.999Z,72.69
2022-12-23T14:43:56.069Z,72.62
2022-12-23T14:46:31.169Z,72.46
2022-12-23T14:49:38.856Z,72.22
2022-12-23T14:51:53.972Z,72.29
2022-12-23T14:54:20.226Z,72.48
2022-12-23T14:56:48.315Z,72.65
2022-12-23T14:59:18.561Z,73.06
2022-12-23T15:01:40.809Z,73.00
2022-12-23T15:04:01.534Z,73.34
2022-12-23T15:06:25.721Z,73.31
2022-12-23T15:08:43.524Z,73.64
2022-12-23T15:10:59.047Z,73.10
2022-12-23T15:13:16.312Z,73.20
2022-12-23T15:15:31.989Z,72.98
2022-12-23T15:17:45.150Z,73.11
2022-12-23T15:20:06.913Z,72.93
2022-12-23T15:22:28.274Z,73.05
2022-12-23T15:24:47.287Z,72.82
2022-12-23T15:27:26.069Z,72.96
2022-12-23T15:29:36.181Z,72.96
2022-12-23T15:31:53.971Z,72.75
2022-12-23T15:34:17.111Z,72.74
2022-12-23T15:36:37.286Z,72.80
2022-12-23T15:38:50.696Z,73.12
2022-12-23T15:41:08.482Z,73.44
2022-12-23T15:43:26.049Z,73.56
2022-12-23T15:45:41.521Z,73.36
2022-12-23T15:47:55.469Z,73.35
2022-12-23T15:50:16.524Z,73.24
2022-12-23T15:52:29.762Z,73.12
2022-12-23T15:54:47.763Z,73.67
2022-12-23T15:57:03.916Z,73.47
2022-12-23T15:59:27.878Z,73.69
2022-12-23T16:01:45.835Z,73.82
2022-12-23T16:04:01.480Z,73.88
2022-12-23T16:06:20.949Z,73.97
2022-12-23T16:08:42.008Z,74.10
2022-12-23T16:11:08.118Z,74.03
2022-12-23T16:13:24.126Z,74.18
2022-12-23T16:15:38.171Z,74.50
2022-12-23T16:17:52.069Z,74.62
2022-12-23T16:20:29.403Z,74.68
2022-12-23T16:22:43.952Z,74.62
2022-12-23T16:25:03.361Z,74.77
2022-12-23T16:27:22.533Z,74.65
2022-12-23T16:29:36.696Z,74.56
2022-12-23T16:31:54.440Z,74.60
2022-12-23T16:34:16.336Z,74.41
2022-12-23T16:36:40.022Z,74.50
2022-12-23T16:38:56.567Z,74.57
2022-12-23T16:41:09.868Z,75.00
2022-12-23T16:43:25.024Z,75.07
2022-12-23T16:45:40.075Z,74.90
2022-12-23T16:47:55.563Z,74.62
2022-12-23T16:50:12.034Z,74.53
2022-12-23T16:52:26.058Z,74.54
2022-12-23T16:54:40.151Z,74.73
2022-12-23T16:56:54.303Z,74.64
2022-12-23T16:59:08.356Z,74.80
2022-12-23T17:01:25.535Z,74.51
2022-12-23T17:03:38.684Z,74.74
2022-12-23T17:05:53.445Z,74.33
2022-12-23T17:08:07.703Z,74.33
2022-12-23T17:10:24.637Z,74.52
2022-12-23T17:12:38.748Z,74.67
2022-12-23T17:14:52.596Z,74.50
2022-12-23T17:17:12.463Z,74.45
2022-12-23T17:19:29.203Z,74.68
2022-12-23T17:21:45.379Z,74.67
2022-12-23T17:24:06.068Z,74.33
2022-12-23T17:26:19.125Z,74.22
2022-12-23T17:28:35.662Z,74.22
2022-12-23T17:30:48.856Z,74.13
2022-12-23T17:33:03.444Z,74.01
2022-12-23T17:35:21.073Z,73.95
2022-12-23T17:37:34.724Z,73.69
2022-12-23T17:39:49.952Z,73.79
2022-12-23T17:42:02.954Z,73.72
2022-12-23T17:44:20.021Z,73.83
2022-12-23T17:46:33.635Z,73.79
2022-12-23T17:48:48.066Z,73.90
2022-12-23T17:51:02.073Z,74.12
2022-12-23T17:53:18.367Z,73.86
2022-12-23T17:55:32.392Z,73.79
2022-12-23T17:57:46.389Z,73.77
2022-12-23T17:59:59.765Z,73.72
2022-12-23T18:02:23.860Z,73.88
2022-12-23T18:04:37.982Z,73.51
2022-12-23T18:06:50.974Z,73.69
2022-12-23T18:09:04.603Z,73.47
2022-12-23T18:11:24.572Z,73.41
2022-12-23T18:13:38.320Z,73.22
2022-12-23T18:15:53.678Z,73.36
2022-12-23T18:18:12.887Z,73.28
2022-12-23T18:20:27.545Z,73.25
2022-12-23T18:22:41.079Z,73.33
2022-12-23T18:24:59.070Z,73.36
2022-12-23T18:27:18.361Z,73.35
2022-12-23T18:29:32.120Z,74.01
2022-12-23T18:31:51.462Z,73.89
2022-12-23T18:34:05.719Z,73.93
2022-12-23T18:36:26.638Z,74.07
2022-12-23T18:38:39.846Z,73.89
2022-12-23T18:40:55.290Z,73.88
2022-12-23T18:43:10.121Z,73.91
2022-12-23T18:45:35.374Z,73.89
2022-12-23T18:47:48.509Z,73.96
2022-12-23T18:50:01.518Z,73.95
2022-12-23T18:52:17.923Z,74.21
2022-12-23T18:54:32.089Z,74.30
2022-12-23T18:56:46.332Z,74.69
2022-12-23T18:58:59.580Z,74.56
2022-12-23T19:01:16.799Z,74.51
2022-12-23T19:03:31.809Z,74.41
2022-12-23T19:05:44.880Z,74.44
2022-12-23T19:07:59.334Z,74.51
2022-12-23T19:10:17.592Z,74.41
2022-12-23T19:12:32.799Z,74.40
2022-12-23T19:14:46.784Z,74.33
2022-12-23T19:17:02.915Z,74.20
2022-12-23T19:19:17.394Z,74.37
2022-12-23T19:21:31.028Z,74.35
2022-12-23T19:23:45.348Z,74.37
2022-12-23T19:25:58.415Z,74.57
2022-12-23T19:28:12.729Z,74.57
2022-12-23T19:30:25.876Z,74.54
2022-12-23T19:32:40.213Z,74.92
2022-12-23T19:34:53.611Z,74.72
2022-12-23T19:37:07.393Z,74.58
2022-12-23T19:39:23.016Z,74.68
2022-12-23T19:41:37.184Z,75.02
2022-12-23T19:43:51.866Z,74.81
2022-12-23T19:46:07.410Z,74.98
2022-12-23T19:48:21.062Z,75.13
2022-12-23T19:50:35.460Z,74.98
2022-12-23T19:52:49.283Z,75.25
2022-12-23T19:55:02.259Z,74.94
2022-12-23T19:57:15.421Z,74.94
2022-12-23T19:59:28.443Z,74.76
2022-12-23T20:01:42.300Z,74.85
2022-12-23T20:03:56.168Z,75.00
2022-12-23T20:06:11.301Z,75.03
2022-12-23T20:08:25.250Z,74.94
2022-12-23T20:10:38.425Z,74.81
2022-12-23T20:12:54.317Z,74.79
2022-12-23T20:15:08.080Z,75.01
2022-12-23T20:17:21.075Z,74.99
2022-12-23T20:19:35.423Z,75.02
2022-12-23T20:21:51.205Z,74.93
2022-12-23T20:24:04.262Z,74.87
2022-12-23T20:26:19.717Z,74.88
2022-12-23T20:28:33.409Z,74.94
2022-12-23T20:30:46.386Z,74.96
2022-12-23T20:33:00.370Z,75.11
2022-12-23T20:35:14.384Z,74.93
2022-12-23T20:37:28.694Z,75.01
2022-12-23T20:39:42.106Z,74.96
2022-12-23T20:41:58.429Z,74.99
2022-12-23T20:46:45.789Z,75.09
2022-12-23T20:48:59.755Z,74.97
2022-12-23T20:51:16.826Z,75.08
2022-12-23T20:53:31.049Z,75.12
2022-12-23T20:55:44.894Z,75.13
2022-12-23T20:57:58.412Z,75.08
2022-12-23T21:00:17.814Z,74.94
2022-12-23T21:02:31.758Z,74.88
2022-12-23T21:04:45.779Z,74.85
2022-12-23T21:06:59.724Z,74.99
2022-12-23T21:09:15.712Z,74.90
2022-12-23T21:11:30.348Z,74.95
2022-12-23T21:13:43.381Z,74.92
2022-12-23T21:16:02.976Z,74.80
2022-12-23T21:18:16.379Z,74.96
2022-12-23T21:20:29.920Z,74.92
2022-12-23T21:22:42.347Z,74.98
2022-12-23T21:24:54.706Z,75.05
2022-12-23T21:27:08.457Z,74.98
2022-12-23T21:29:21.075Z,75.24
2022-12-23T21:31:36.340Z,75.26
2022-12-23T21:33:50.695Z,75.29
2022-12-23T21:36:03.969Z,75.21
2022-12-23T21:38:17.755Z,75.37
2022-12-23T21:40:31.809Z,75.36
2022-12-23T21:42:46.050Z,75.21
2022-12-23T21:45:00.171Z,75.08
2022-12-23T21:47:12.784Z,75.11
2022-12-23T21:49:26.230Z,75.18
2022-12-23T21:51:41.538Z,74.98
2022-12-23T21:53:56.664Z,74.84
2022-12-23T21:56:13.442Z,74.94
2022-12-23T21:58:27.666Z,75.16
2022-12-23T22:00:40.936Z,75.16
2022-12-23T22:02:53.964Z,75.23
2022-12-23T22:05:08.140Z,75.33
2022-12-23T22:07:20.805Z,75.40
2022-12-23T22:09:35.057Z,75.36
2022-12-23T22:11:48.376Z,75.60
2022-12-23T22:14:02.589Z,75.86
2022-12-23T22:16:18.386Z,75.94
2022-12-23T22:18:31.149Z,75.72
2022-12-23T22:20:46.563Z,75.91
2022-12-23T22:23:00.768Z,75.94
2022-12-23T22:25:15.213Z,76.05
2022-12-23T22:27:29.309Z,76.29
2022-12-23T22:29:43.187Z,76.49
2022-12-23T22:31:57.840Z,76.55
2022-12-23T22:34:14.632Z,76.53
2022-12-23T22:36:27.925Z,76.45
2022-12-23T22:38:41.451Z,76.58
2022-12-23T22:40:59.438Z,76.51
2022-12-23T22:43:13.370Z,76.55
2022-12-23T22:45:26.597Z,76.73
2022-12-23T22:47:40.064Z,76.74
2022-12-23T22:49:54.125Z,76.69
2022-12-23T22:52:07.835Z,76.69
2022-12-23T22:54:21.663Z,76.80
2022-12-23T22:56:35.783Z,76.91
2022-12-23T22:58:49.988Z,77.13
2022-12-23T23:01:04.707Z,77.23
2022-12-23T23:03:19.342Z,77.09
2022-12-23T23:05:33.590Z,77.12
2022-12-23T23:07:47.314Z,77.11
2022-12-23T23:10:00.804Z,77.12
2022-12-23T23:12:14.941Z,77.16
2022-12-23T23:14:28.849Z,77.36
2022-12-23T23:16:42.206Z,77.36
2022-12-23T23:18:56.400Z,77.54
2022-12-23T23:21:10.300Z,77.42
2022-12-23T23:23:24.656Z,77.62
2022-12-23T23:25:38.744Z,77.60
2022-12-23T23:27:52.559Z,77.91
2022-12-23T23:30:05.594Z,77.82
2022-12-23T23:32:18.796Z,78.04
2022-12-23T23:34:31.838Z,77.87
2022-12-23T23:36:45.321Z,77.90
2022-12-23T23:38:59.649Z,77.99
2022-12-23T23:41:20.626Z,78.00
2022-12-23T23:43:36.971Z,78.22
2022-12-23T23:45:51.104Z,78.19
2022-12-23T23:48:05.039Z,78.16
2022-12-23T23:50:18.846Z,78.24
2022-12-23T23:52:32.804Z,78.30
2022-12-23T23:54:47.389Z,78.34
2022-12-23T23:57:00.757Z,78.28
2022-12-23T23:59:14.100Z,78.31
